Time;durP1;ratioP1;P1;durP2;ratioP2;P2;SDS_P1;SDS_P2;PMS_P1;PMS_P2;Temp;Humidity;BMP_temperature;BMP_pressure;BME280_temperature;BME280_humidity;BME280_pressure;Samples;Min_cycle;Max_cycle;Signal;HPM_P1;HPM_P2
2023/08/25 00:00:09;;;;;;;7.68;5.47;;;;;;;;;;6212711;28;20081;-80
2023/08/25 00:03:14;;;;;;;6.80;5.30;;;;;;;;;;6221418;28;20041;-81
2023/08/25 00:06:16;;;;;;;11.02;5.57;;;;;;;;;;6240039;28;20081;-80
2023/08/25 00:09:18;;;;;;;6.90;5.50;;;;;;;;;;6238136;28;20049;-81
2023/08/25 00:12:19;;;;;;;6.07;4.80;;;;;;;;;;6220874;28;20052;-81
2023/08/25 00:15:21;;;;;;;8.52;5.63;;;;;;;;;;6232925;28;20047;-81
2023/08/25 00:18:22;;;;;;;10.07;5.75;;;;;;;;;;6239983;28;20050;-81
2023/08/25 00:21:24;;;;;;;7.88;5.35;;;;;;;;;;6239486;28;20088;-78
2023/08/25 00:24:26;;;;;;;9.18;5.60;;;;;;;;;;6232739;28;20470;-80
2023/08/25 00:27:27;;;;;;;6.50;4.78;;;;;;;;;;6233250;28;20096;-81
2023/08/25 00:30:29;;;;;;;6.07;4.75;;;;;;;;;;6236751;28;20056;-81
2023/08/25 00:33:32;;;;;;;7.30;5.07;;;;;;;;;;6220228;28;20529;-81
2023/08/25 00:36:33;;;;;;;7.78;5.18;;;;;;;;;;6214333;28;20065;-80
2023/08/25 00:39:35;;;;;;;5.93;4.75;;;;;;;;;;6237152;28;20476;-79
2023/08/25 00:42:37;;;;;;;5.85;5.10;;;;;;;;;;6239640;28;20049;-81
2023/08/25 00:45:40;;;;;;;5.35;4.32;;;;;;;;;;6233445;28;20045;-79
2023/08/25 00:48:42;;;;;;;6.28;4.70;;;;;;;;;;6232079;28;20050;-79
2023/08/25 00:51:43;;;;;;;8.05;5.05;;;;;;;;;;6235259;28;20045;-79
2023/08/25 00:54:47;;;;;;;8.63;4.90;;;;;;;;;;6234769;28;20045;-79
2023/08/25 00:57:49;;;;;;;5.03;4.53;;;;;;;;;;6231328;28;20049;-80
2023/08/25 01:00:53;;;;;;;7.95;5.03;;;;;;;;;;6213662;28;20056;-79
2023/08/25 01:03:56;;;;;;;9.73;5.35;;;;;;;;;;6219525;28;20042;-79
2023/08/25 01:06:58;;;;;;;6.88;5.28;;;;;;;;;;6192706;28;20050;-79
2023/08/25 01:09:59;;;;;;;5.95;4.50;;;;;;;;;;6232466;28;20152;-79
2023/08/25 01:13:19;;;;;;;6.72;4.85;;;;;;;;;;6202191;28;20057;-78
2023/08/25 01:16:34;;;;;;;9.48;5.45;;;;;;;;;;6210959;28;20053;-79
2023/08/25 01:19:54;;;;;;;7.00;5.03;;;;;;;;;;6221860;28;20092;-80
2023/08/25 01:23:14;;;;;;;7.13;5.20;;;;;;;;;;6223600;28;20475;-79
2023/08/25 01:26:17;;;;;;;7.43;5.18;;;;;;;;;;6223455;28;20152;-79
2023/08/25 01:29:19;;;;;;;7.25;5.28;;;;;;;;;;6193500;28;20412;-79
2023/08/25 01:32:21;;;;;;;7.28;5.00;;;;;;;;;;6213965;28;20053;-78
2023/08/25 01:35:36;;;;;;;7.57;5.10;;;;;;;;;;6207679;28;20058;-79
2023/08/25 01:38:43;;;;;;;10.20;4.88;;;;;;;;;;6207963;28;20652;-79
2023/08/25 01:41:56;;;;;;;7.07;4.68;;;;;;;;;;6212259;28;20042;-79
2023/08/25 01:45:00;;;;;;;6.40;4.88;;;;;;;;;;6224297;28;20049;-80
2023/08/25 01:48:06;;;;;;;6.53;4.38;;;;;;;;;;6226438;28;20049;-78
2023/08/25 01:51:08;;;;;;;6.93;4.60;;;;;;;;;;6207093;28;20046;-79
2023/08/25 01:54:13;;;;;;;7.80;4.93;;;;;;;;;;6212020;28;20053;-80
2023/08/25 01:57:15;;;;;;;7.35;5.70;;;;;;;;;;6231275;28;20064;-79
2023/08/25 02:00:19;;;;;;;9.70;5.78;;;;;;;;;;6213796;28;20491;-78
2023/08/25 02:03:20;;;;;;;8.13;5.22;;;;;;;;;;6226345;28;20047;-80
2023/08/25 02:06:22;;;;;;;7.82;5.28;;;;;;;;;;6198742;28;20057;-79
2023/08/25 02:09:24;;;;;;;8.35;5.40;;;;;;;;;;6216350;28;20057;-79
2023/08/25 02:12:25;;;;;;;8.63;5.32;;;;;;;;;;6195405;28;20046;-79
2023/08/25 02:15:28;;;;;;;7.72;5.30;;;;;;;;;;6226774;28;20045;-80
2023/08/25 02:18:29;;;;;;;7.40;5.00;;;;;;;;;;6214818;28;20070;-81
2023/08/25 02:21:32;;;;;;;8.75;6.32;;;;;;;;;;6197748;28;20042;-80
2023/08/25 02:24:34;;;;;;;6.68;5.90;;;;;;;;;;6221193;28;20115;-81
2023/08/25 02:27:36;;;;;;;12.38;5.72;;;;;;;;;;6231636;28;20048;-78
2023/08/25 02:30:38;;;;;;;7.38;5.30;;;;;;;;;;6222829;28;20091;-80
2023/08/25 02:33:40;;;;;;;9.38;4.75;;;;;;;;;;6239691;28;20446;-79
2023/08/25 02:36:42;;;;;;;6.67;5.23;;;;;;;;;;6223662;28;20041;-79
2023/08/25 02:39:43;;;;;;;6.20;5.10;;;;;;;;;;6240076;28;20115;-79
2023/08/25 02:42:45;;;;;;;6.33;5.23;;;;;;;;;;6239974;28;20050;-80
2023/08/25 02:45:47;;;;;;;10.55;5.97;;;;;;;;;;6237219;28;20076;-81
2023/08/25 02:48:48;;;;;;;12.82;6.80;;;;;;;;;;6239555;28;20046;-80
2023/08/25 02:51:50;;;;;;;13.07;6.68;;;;;;;;;;6222551;28;20126;-79
2023/08/25 02:54:52;;;;;;;11.77;6.67;;;;;;;;;;6239930;28;20041;-81
2023/08/25 02:57:54;;;;;;;10.80;6.70;;;;;;;;;;6214973;28;20057;-79
2023/08/25 03:00:57;;;;;;;8.63;6.18;;;;;;;;;;6206125;28;20120;-80
2023/08/25 03:03:58;;;;;;;9.25;5.72;;;;;;;;;;6237731;28;20109;-79
2023/08/25 03:07:00;;;;;;;14.07;6.95;;;;;;;;;;6234046;28;20053;-80
2023/08/25 03:10:02;;;;;;;13.85;7.70;;;;;;;;;;6239293;28;20119;-79
2023/08/25 03:13:05;;;;;;;;;;;;;;;;;;6194527;28;20042;-79
2023/08/25 03:16:07;;;;;;;17.27;8.25;;;;;;;;;;6202990;28;19930;-78
2023/08/25 03:19:09;;;;;;;15.30;7.82;;;;;;;;;;6215789;28;20510;-79
2023/08/25 03:22:11;;;;;;;13.40;7.57;;;;;;;;;;6220499;28;20522;-78
2023/08/25 03:25:13;;;;;;;13.60;9.60;;;;;;;;;;6232893;28;20041;-79
2023/08/25 03:28:16;;;;;;;15.90;8.50;;;;;;;;;;6221389;28;20041;-80
2023/08/25 03:31:19;;;;;;;11.00;7.97;;;;;;;;;;6234661;28;20049;-80
2023/08/25 03:34:21;;;;;;;19.67;10.05;;;;;;;;;;6239216;28;20423;-78
2023/08/25 03:37:22;;;;;;;16.00;8.75;;;;;;;;;;6218850;28;20049;-79
2023/08/25 03:40:24;;;;;;;13.18;8.30;;;;;;;;;;6236403;28;20049;-78
2023/08/25 03:43:26;;;;;;;12.57;7.45;;;;;;;;;;6234503;28;20046;-78
2023/08/25 03:46:28;;;;;;;14.15;7.55;;;;;;;;;;6239123;28;20053;-78
2023/08/25 03:49:31;;;;;;;12.05;7.18;;;;;;;;;;6219286;28;20037;-78
2023/08/25 03:52:33;;;;;;;13.63;6.85;;;;;;;;;;6197692;28;20415;-80
2023/08/25 03:55:35;;;;;;;9.77;6.50;;;;;;;;;;6234484;28;20046;-78
2023/08/25 03:58:36;;;;;;;9.32;6.85;;;;;;;;;;6213500;28;20046;-79
2023/08/25 04:01:38;;;;;;;10.18;6.25;;;;;;;;;;6217156;28;20108;-78
2023/08/25 04:04:40;;;;;;;12.07;6.40;;;;;;;;;;6233501;28;20053;-80
2023/08/25 04:07:41;;;;;;;9.43;5.78;;;;;;;;;;6220944;28;20041;-76
2023/08/25 04:10:43;;;;;;;7.35;5.57;;;;;;;;;;6231161;28;20045;-76
2023/08/25 04:13:47;;;;;;;11.52;6.30;;;;;;;;;;6228527;28;20048;-78
2023/08/25 04:16:49;;;;;;;8.93;5.88;;;;;;;;;;6241160;28;20048;-79
2023/08/25 04:19:51;;;;;;;8.70;6.00;;;;;;;;;;6207062;28;20419;-79
2023/08/25 04:22:52;;;;;;;9.80;6.57;;;;;;;;;;6215843;28;20052;-77
2023/08/25 04:25:54;;;;;;;9.10;5.78;;;;;;;;;;6216207;28;20040;-77
2023/08/25 04:28:56;;;;;;;12.52;6.75;;;;;;;;;;6233730;28;20052;-75
2023/08/25 04:31:57;;;;;;;14.15;7.38;;;;;;;;;;6201885;28;20134;-77
2023/08/25 04:35:13;;;;;;;12.15;7.15;;;;;;;;;;6210735;28;20052;-77
2023/08/25 04:38:15;;;;;;;15.07;7.67;;;;;;;;;;6207527;28;20044;-80
2023/08/25 04:41:18;;;;;;;18.33;8.57;;;;;;;;;;6204365;28;20034;-79
2023/08/25 04:44:20;;;;;;;22.17;9.45;;;;;;;;;;6172384;28;20522;-78
2023/08/25 04:47:23;;;;;;;17.35;8.40;;;;;;;;;;6181203;28;20722;-78
2023/08/25 04:50:25;;;;;;;20.48;10.23;;;;;;;;;;6193677;28;20129;-77
2023/08/25 04:53:27;;;;;;;25.15;9.75;;;;;;;;;;6212674;28;20042;-78
2023/08/25 04:56:29;;;;;;;25.55;9.85;;;;;;;;;;6225473;28;20050;-79
2023/08/25 04:59:31;;;;;;;21.00;9.15;;;;;;;;;;6226466;28;20516;-78
2023/08/25 05:02:33;;;;;;;29.73;9.95;;;;;;;;;;6238764;28;20526;-80
2023/08/25 05:05:35;;;;;;;33.78;10.88;;;;;;;;;;6210718;28;20044;-77
2023/08/25 05:08:38;;;;;;;29.42;9.77;;;;;;;;;;6223659;28;20056;-77
2023/08/25 05:11:40;;;;;;;22.45;10.52;;;;;;;;;;6216811;28;20041;-79
2023/08/25 05:14:42;;;;;;;21.43;10.43;;;;;;;;;;6233709;28;20507;-79
2023/08/25 05:17:44;;;;;;;21.50;10.02;;;;;;;;;;6227030;28;20393;-79
2023/08/25 05:20:46;;;;;;;25.67;10.80;;;;;;;;;;6209273;28;20045;-78
2023/08/25 05:23:48;;;;;;;20.90;9.70;;;;;;;;;;6210503;28;20041;-79
2023/08/25 05:26:51;;;;;;;;;;;;;;;;;;6232266;28;20072;-80
2023/08/25 05:29:53;;;;;;;24.53;10.27;;;;;;;;;;6214236;28;19983;-79
2023/08/25 05:32:58;;;;;;;32.00;11.68;;;;;;;;;;6231098;28;20521;-79
2023/08/25 05:36:19;;;;;;;34.97;10.48;;;;;;;;;;6212361;28;20053;-78
2023/08/25 05:39:21;;;;;;;27.75;10.40;;;;;;;;;;6212212;28;20052;-78
2023/08/25 05:42:26;;;;;;;25.75;10.32;;;;;;;;;;6211250;28;20041;-78
2023/08/25 05:45:28;;;;;;;25.73;10.07;;;;;;;;;;6215326;28;20042;-79
2023/08/25 05:48:30;;;;;;;23.83;9.68;;;;;;;;;;6209567;28;20121;-78
2023/08/25 05:51:32;;;;;;;29.98;10.77;;;;;;;;;;6229946;28;20037;-78
2023/08/25 05:54:34;;;;;;;31.73;10.75;;;;;;;;;;6232910;28;20045;-79
2023/08/25 05:57:37;;;;;;;27.30;10.80;;;;;;;;;;6238228;28;20041;-80
2023/08/25 06:00:39;;;;;;;33.85;10.73;;;;;;;;;;6236631;28;20474;-79
2023/08/25 06:03:40;;;;;;;26.15;9.75;;;;;;;;;;6231152;28;20076;-79
2023/08/25 06:06:44;;;;;;;23.20;9.38;;;;;;;;;;6227685;28;20120;-79
2023/08/25 06:09:45;;;;;;;19.90;9.35;;;;;;;;;;6229290;28;20041;-79
2023/08/25 06:12:47;;;;;;;15.77;8.40;;;;;;;;;;6225956;28;21640;-80
2023/08/25 06:15:49;;;;;;;27.35;9.27;;;;;;;;;;6229850;28;20088;-80
2023/08/25 06:18:50;;;;;;;19.75;8.45;;;;;;;;;;6227831;28;20053;-80
2023/08/25 06:21:52;;;;;;;18.80;9.63;;;;;;;;;;6233668;28;20123;-79
2023/08/25 06:24:53;;;;;;;20.42;9.40;;;;;;;;;;6215308;28;20072;-80
2023/08/25 06:27:55;;;;;;;16.58;9.18;;;;;;;;;;6232336;28;20438;-77
2023/08/25 06:30:57;;;;;;;16.25;9.45;;;;;;;;;;6232020;28;20119;-79
2023/08/25 06:33:59;;;;;;;17.08;8.88;;;;;;;;;;6232391;28;20055;-80
2023/08/25 06:37:00;;;;;;;15.73;9.45;;;;;;;;;;6213864;28;20128;-81
2023/08/25 06:40:05;;;;;;;18.88;9.70;;;;;;;;;;6231672;28;20053;-79
2023/08/25 06:43:07;;;;;;;18.48;10.15;;;;;;;;;;6225888;28;20056;-78
2023/08/25 06:46:08;;;;;;;19.95;11.30;;;;;;;;;;6226421;28;20038;-80
2023/08/25 06:49:11;;;;;;;20.48;11.18;;;;;;;;;;6232121;28;20183;-80
2023/08/25 06:52:13;;;;;;;18.27;10.32;;;;;;;;;;6225578;28;20415;-81
2023/08/25 06:55:16;;;;;;;19.38;10.20;;;;;;;;;;6224143;28;20512;-79
2023/08/25 06:58:17;;;;;;;18.00;10.18;;;;;;;;;;6213719;28;20092;-79
2023/08/25 07:01:19;;;;;;;15.65;9.70;;;;;;;;;;6228573;28;20118;-79
2023/08/25 07:04:21;;;;;;;17.45;10.32;;;;;;;;;;6222038;28;20113;-80
2023/08/25 07:07:26;;;;;;;16.27;10.23;;;;;;;;;;6227357;28;20502;-81
2023/08/25 07:10:28;;;;;;;13.75;9.55;;;;;;;;;;6228044;28;20053;-81
2023/08/25 07:13:31;;;;;;;15.38;9.68;;;;;;;;;;6226297;28;20057;-81
2023/08/25 07:16:33;;;;;;;14.93;10.25;;;;;;;;;;6206824;28;20182;-81
2023/08/25 07:19:34;;;;;;;15.35;10.82;;;;;;;;;;6221772;28;20117;-81
2023/08/25 07:22:36;;;;;;;15.77;11.27;;;;;;;;;;6232549;28;20124;-80
2023/08/25 07:25:43;;;;;;;15.27;10.77;;;;;;;;;;6229073;28;20049;-80
2023/08/25 07:28:46;;;;;;;17.20;10.98;;;;;;;;;;6225306;28;20519;-81
2023/08/25 07:31:48;;;;;;;16.48;10.70;;;;;;;;;;6214147;28;20150;-80
2023/08/25 07:34:50;;;;;;;14.77;10.17;;;;;;;;;;6213199;28;20185;-80
2023/08/25 07:37:53;;;;;;;12.90;10.35;;;;;;;;;;6228305;28;20049;-80
2023/08/25 07:40:56;;;;;;;12.73;10.45;;;;;;;;;;6229378;28;20045;-80
2023/08/25 07:43:58;;;;;;;12.00;9.23;;;;;;;;;;6213861;28;20095;-81
2023/08/25 07:47:00;;;;;;;10.40;8.65;;;;;;;;;;6216294;28;20060;-81
2023/08/25 07:50:03;;;;;;;11.68;9.05;;;;;;;;;;6227047;28;20051;-80
2023/08/25 07:53:06;;;;;;;11.25;8.90;;;;;;;;;;6226395;28;20657;-80
2023/08/25 07:56:08;;;;;;;;;;;;;;;;;;6234108;28;20093;-80
2023/08/25 07:59:10;;;;;;;11.43;9.30;;;;;;;;;;6226469;28;20000;-80
2023/08/25 08:02:12;;;;;;;11.27;8.48;;;;;;;;;;6228545;28;20061;-79
2023/08/25 08:05:15;;;;;;;10.33;8.77;;;;;;;;;;6232331;28;20052;-81
2023/08/25 08:08:17;;;;;;;14.40;11.60;;;;;;;;;;6230076;28;20045;-80
2023/08/25 08:11:19;;;;;;;14.80;11.13;;;;;;;;;;6208274;28;20046;-80
2023/08/25 08:14:21;;;;;;;12.55;11.18;;;;;;;;;;6216138;28;20045;-80
2023/08/25 08:17:40;;;;;;;13.82;11.25;;;;;;;;;;6232395;28;20496;-81
2023/08/25 08:20:43;;;;;;;14.50;10.37;;;;;;;;;;6228502;28;20046;-81
2023/08/25 08:23:44;;;;;;;12.82;10.95;;;;;;;;;;6216362;28;20037;-81
2023/08/25 08:26:46;;;;;;;13.18;10.45;;;;;;;;;;6231105;28;20042;-81
2023/08/25 08:29:48;;;;;;;13.30;10.23;;;;;;;;;;6230022;28;20056;-82
2023/08/25 08:32:50;;;;;;;10.93;9.35;;;;;;;;;;6213174;28;20046;-81
2023/08/25 08:35:51;;;;;;;10.05;8.63;;;;;;;;;;6187982;28;20177;-82
2023/08/25 08:38:53;;;;;;;11.18;9.35;;;;;;;;;;6230603;28;20052;-81
2023/08/25 08:41:55;;;;;;;10.32;8.50;;;;;;;;;;6228212;28;20115;-79
2023/08/25 08:45:07;;;;;;;11.10;8.73;;;;;;;;;;6200743;28;20149;-78
2023/08/25 08:48:09;;;;;;;9.82;8.48;;;;;;;;;;6230045;28;20049;-80
2023/08/25 08:51:14;;;;;;;9.73;8.68;;;;;;;;;;6228385;28;20041;-80
2023/08/25 08:54:19;;;;;;;14.20;8.57;;;;;;;;;;6213061;28;20565;-80
2023/08/25 08:57:21;;;;;;;8.95;8.02;;;;;;;;;;6230565;28;20057;-80
2023/08/25 09:00:27;;;;;;;10.15;8.98;;;;;;;;;;6227693;28;20524;-79
2023/08/25 09:03:33;;;;;;;10.60;8.73;;;;;;;;;;6232007;28;20508;-80
2023/08/25 09:06:37;;;;;;;10.30;9.13;;;;;;;;;;6195459;28;20037;-79
2023/08/25 09:09:40;;;;;;;10.35;9.25;;;;;;;;;;6229409;28;20184;-80
2023/08/25 09:12:42;;;;;;;10.07;8.05;;;;;;;;;;6214959;28;20056;-80
2023/08/25 09:15:44;;;;;;;9.07;8.05;;;;;;;;;;6233117;28;20518;-80
2023/08/25 09:18:46;;;;;;;10.37;8.50;;;;;;;;;;6213396;28;20093;-80
2023/08/25 09:21:48;;;;;;;9.18;7.72;;;;;;;;;;6198464;28;20116;-79
2023/08/25 09:24:50;;;;;;;9.85;7.30;;;;;;;;;;6195310;28;20041;-79
2023/08/25 09:27:59;;;;;;;9.45;7.15;;;;;;;;;;6208190;28;20119;-79
2023/08/25 09:31:01;;;;;;;9.38;7.88;;;;;;;;;;6205441;28;20076;-80
2023/08/25 09:34:06;;;;;;;8.15;7.35;;;;;;;;;;6225823;28;20050;-79
2023/08/25 09:37:07;;;;;;;7.75;6.88;;;;;;;;;;6228236;28;20052;-80
2023/08/25 09:40:13;;;;;;;7.95;5.93;;;;;;;;;;6230646;28;20033;-80
2023/08/25 09:43:15;;;;;;;6.90;6.10;;;;;;;;;;6229870;28;20042;-79
2023/08/25 09:46:17;;;;;;;6.65;5.95;;;;;;;;;;6204734;28;20042;-79
2023/08/25 09:49:18;;;;;;;8.35;6.30;;;;;;;;;;6231022;28;20034;-79
2023/08/25 09:52:26;;;;;;;8.77;6.68;;;;;;;;;;6181788;28;20063;-81
2023/08/25 09:55:28;;;;;;;7.38;6.63;;;;;;;;;;6208100;28;20056;-80
2023/08/25 09:58:30;;;;;;;7.55;6.55;;;;;;;;;;6211338;28;20574;-80
2023/08/25 10:01:33;;;;;;;8.07;6.03;;;;;;;;;;6196094;28;20105;-79
2023/08/25 10:04:35;;;;;;;8.35;6.13;;;;;;;;;;6216330;28;20448;-79
2023/08/25 10:07:37;;;;;;;6.60;5.73;;;;;;;;;;6218243;28;20042;-81
2023/08/25 10:10:41;;;;;;;7.57;6.15;;;;;;;;;;6227396;28;20128;-81
2023/08/25 10:13:44;;;;;;;7.53;5.28;;;;;;;;;;6227829;28;20046;-80
2023/08/25 10:16:51;;;;;;;6.50;5.88;;;;;;;;;;6213195;28;20045;-80
2023/08/25 10:19:55;;;;;;;6.05;5.32;;;;;;;;;;6189466;28;20491;-80
2023/08/25 10:22:58;;;;;;;6.78;5.00;;;;;;;;;;6207869;28;20046;-81
2023/08/25 10:25:59;;;;;;;5.75;5.05;;;;;;;;;;6202641;28;20280;-81
2023/08/25 10:29:01;;;;;;;6.40;5.00;;;;;;;;;;6187181;28;20042;-82
2023/08/25 10:32:04;;;;;;;8.27;5.10;;;;;;;;;;6213974;28;20049;-82
2023/08/25 10:35:07;;;;;;;5.28;4.78;;;;;;;;;;6221774;28;20038;-83
2023/08/25 10:38:17;;;;;;;6.78;4.60;;;;;;;;;;6193906;28;20077;-83
2023/08/25 10:41:20;;;;;;;5.22;4.53;;;;;;;;;;6198724;28;20042;-83
2023/08/25 10:44:22;;;;;;;5.45;4.57;;;;;;;;;;6208652;28;20046;-83
2023/08/25 10:47:23;;;;;;;6.57;4.65;;;;;;;;;;6214029;28;20472;-81
2023/08/25 10:50:25;;;;;;;5.70;4.57;;;;;;;;;;6240218;28;20574;-83
2023/08/25 10:53:35;;;;;;;4.93;4.13;;;;;;;;;;6234371;28;20523;-83
2023/08/25 10:56:39;;;;;;;5.25;4.75;;;;;;;;;;6235408;28;20450;-82
2023/08/25 10:59:40;;;;;;;5.20;4.70;;;;;;;;;;6214650;28;20038;-82
2023/08/25 11:02:42;;;;;;;5.53;4.60;;;;;;;;;;6219099;28;20108;-79
2023/08/25 11:05:44;;;;;;;5.40;4.90;;;;;;;;;;6233672;28;20112;-84
2023/08/25 11:08:56;;;;;;;6.15;4.43;;;;;;;;;;6231622;28;20049;-84
2023/08/25 11:12:08;;;;;;;9.10;4.97;;;;;;;;;;6237314;28;20553;-83
2023/08/25 11:15:10;;;;;;;4.70;4.30;;;;;;;;;;6214648;28;20445;-83
2023/08/25 11:18:12;;;;;;;5.68;4.50;;;;;;;;;;6217616;28;20053;-83
2023/08/25 11:21:14;;;;;;;4.60;4.07;;;;;;;;;;6231990;28;20180;-85
2023/08/25 11:24:25;;;;;;;4.60;4.13;;;;;;;;;;6236726;28;20048;-84
2023/08/25 11:27:28;;;;;;;5.22;4.55;;;;;;;;;;6176198;28;20038;-84
2023/08/25 11:30:33;;;;;;;5.55;4.55;;;;;;;;;;6204686;28;20046;-84
2023/08/25 11:33:35;;;;;;;5.05;4.65;;;;;;;;;;6205890;28;20113;-83
2023/08/25 11:36:37;;;;;;;5.00;4.50;;;;;;;;;;6239154;28;20045;-84
2023/08/25 11:39:45;;;;;;;6.07;4.55;;;;;;;;;;6231864;28;20119;-83
2023/08/25 11:42:47;;;;;;;5.13;4.60;;;;;;;;;;6231271;28;20491;-84
2023/08/25 11:45:49;;;;;;;8.45;4.63;;;;;;;;;;6202099;28;20176;-83
2023/08/25 11:48:53;;;;;;;6.25;4.55;;;;;;;;;;6233659;28;20060;-83
2023/08/25 11:51:55;;;;;;;6.32;4.68;;;;;;;;;;6215579;28;20045;-84
2023/08/25 11:54:57;;;;;;;6.20;4.90;;;;;;;;;;6206745;28;20045;-84
2023/08/25 11:58:05;;;;;;;5.45;4.75;;;;;;;;;;6235402;28;20486;-83
2023/08/25 12:01:10;;;;;;;5.93;5.32;;;;;;;;;;6215084;28;20574;-83
2023/08/25 12:04:22;;;;;;;5.95;5.10;;;;;;;;;;6235804;28;20083;-83
2023/08/25 12:07:26;;;;;;;5.10;4.57;;;;;;;;;;6236425;28;20042;-83
2023/08/25 12:10:34;;;;;;;6.13;5.03;;;;;;;;;;6214839;28;20053;-83
2023/08/25 12:13:41;;;;;;;7.00;4.95;;;;;;;;;;6214088;28;20456;-83
2023/08/25 12:16:43;;;;;;;5.93;4.60;;;;;;;;;;6193581;28;20178;-83
2023/08/25 12:19:44;;;;;;;5.40;4.87;;;;;;;;;;6208911;28;20065;-82
2023/08/25 12:23:00;;;;;;;5.47;4.97;;;;;;;;;;6212019;28;20086;-82
2023/08/25 12:26:05;;;;;;;7.75;4.80;;;;;;;;;;6209698;28;20049;-82
2023/08/25 12:29:06;;;;;;;5.25;4.70;;;;;;;;;;6231097;28;20506;-83
2023/08/25 12:32:08;;;;;;;5.90;4.97;;;;;;;;;;6207743;28;20042;-82
2023/08/25 12:35:10;;;;;;;7.30;5.18;;;;;;;;;;6203134;28;20038;-83
2023/08/25 12:38:12;;;;;;;6.13;4.68;;;;;;;;;;6228409;28;20045;-81
2023/08/25 12:41:13;;;;;;;5.27;4.77;;;;;;;;;;6233407;28;20093;-82
2023/08/25 12:44:15;;;;;;;6.47;4.50;;;;;;;;;;6216596;28;20041;-83
2023/08/25 12:47:17;;;;;;;7.50;5.07;;;;;;;;;;6217554;28;20038;-81
2023/08/25 12:50:18;;;;;;;6.88;5.00;;;;;;;;;;6233594;28;20522;-81
2023/08/25 12:53:20;;;;;;;5.97;5.37;;;;;;;;;;6232621;28;20080;-79
2023/08/25 12:56:23;;;;;;;5.30;4.80;;;;;;;;;;6226512;28;20068;-80
2023/08/25 12:59:24;;;;;;;;;;;;;;;;;;6234770;28;20445;-82
2023/08/25 13:02:26;;;;;;;7.47;5.35;;;;;;;;;;6232806;28;19929;-82
2023/08/25 13:05:30;;;;;;;7.15;5.05;;;;;;;;;;6216841;28;20045;-83
2023/08/25 13:08:31;;;;;;;8.18;5.07;;;;;;;;;;6237543;28;20049;-82
2023/08/25 13:11:33;;;;;;;4.83;4.20;;;;;;;;;;6225242;28;20054;-83
2023/08/25 13:14:35;;;;;;;5.25;4.00;;;;;;;;;;6240462;28;20121;-83
2023/08/25 13:17:36;;;;;;;9.02;3.95;;;;;;;;;;6237606;28;20061;-78
2023/08/25 13:20:38;;;;;;;7.23;4.80;;;;;;;;;;6207974;28;20050;-81
2023/08/25 13:23:40;;;;;;;6.68;5.10;;;;;;;;;;6185464;28;20045;-78
2023/08/25 13:26:58;;;;;;;6.85;5.28;;;;;;;;;;6198222;28;20058;-79
2023/08/25 13:30:00;;;;;;;9.73;5.78;;;;;;;;;;6199156;28;20042;-79
2023/08/25 13:33:02;;;;;;;6.20;5.00;;;;;;;;;;6218700;28;20057;-80
2023/08/25 13:36:05;;;;;;;7.10;4.63;;;;;;;;;;6226233;28;20045;-77
2023/08/25 13:39:07;;;;;;;8.25;5.55;;;;;;;;;;6230495;28;20116;-78
2023/08/25 13:42:08;;;;;;;5.90;5.00;;;;;;;;;;6204939;28;20108;-79
2023/08/25 13:45:10;;;;;;;7.30;5.20;;;;;;;;;;6236730;28;20053;-77
2023/08/25 13:48:12;;;;;;;6.30;5.63;;;;;;;;;;6231959;28;20061;-79
2023/08/25 13:51:14;;;;;;;7.75;5.50;;;;;;;;;;6232133;28;20053;-78
2023/08/25 13:54:17;;;;;;;7.65;4.80;;;;;;;;;;6242707;28;20197;-80
2023/08/25 13:57:20;;;;;;;9.75;4.97;;;;;;;;;;6242455;28;20045;-79
2023/08/25 14:00:22;;;;;;;8.38;5.60;;;;;;;;;;6241048;28;20526;-75
2023/08/25 14:03:25;;;;;;;8.38;5.40;;;;;;;;;;6229192;28;20635;-75
2023/08/25 14:06:27;;;;;;;;;;;;;;;;;;6236156;28;20049;-76
2023/08/25 14:09:28;;;;;;;7.00;6.18;;;;;;;;;;6225544;28;20292;-76
2023/08/25 14:12:31;;;;;;;5.97;5.25;;;;;;;;;;6221301;28;20049;-76
2023/08/25 14:15:32;;;;;;;6.32;5.43;;;;;;;;;;6231824;28;20045;-77
2023/08/25 14:18:34;;;;;;;6.80;4.80;;;;;;;;;;6186460;28;20532;-77
2023/08/25 14:21:36;;;;;;;5.30;4.10;;;;;;;;;;6207267;28;20060;-78
2023/08/25 14:24:37;;;;;;;6.45;3.92;;;;;;;;;;6229689;28;20041;-77
2023/08/25 14:27:39;;;;;;;4.10;3.20;;;;;;;;;;6241828;28;20052;-76
2023/08/25 14:30:41;;;;;;;5.43;3.20;;;;;;;;;;6203254;28;20129;-77
2023/08/25 14:33:43;;;;;;;3.40;2.83;;;;;;;;;;6212682;28;20042;-76
2023/08/25 14:36:45;;;;;;;3.53;2.27;;;;;;;;;;6214414;28;20038;-77
2023/08/25 14:39:46;;;;;;;4.65;2.17;;;;;;;;;;6239488;28;20041;-75
2023/08/25 14:42:50;;;;;;;3.90;2.40;;;;;;;;;;6216367;28;20185;-75
2023/08/25 14:45:52;;;;;;;2.78;2.30;;;;;;;;;;6232664;28;20045;-76
2023/08/25 14:48:54;;;;;;;2.92;2.10;;;;;;;;;;6238698;28;20453;-75
2023/08/25 14:51:56;;;;;;;2.47;2.03;;;;;;;;;;6234899;28;20048;-77
2023/08/25 14:54:58;;;;;;;3.45;1.90;;;;;;;;;;6242364;28;20472;-78
2023/08/25 14:58:00;;;;;;;4.10;1.60;;;;;;;;;;6238311;28;20083;-77
2023/08/25 15:01:04;;;;;;;2.95;1.60;;;;;;;;;;6210484;28;20041;-76
2023/08/25 15:04:05;;;;;;;2.40;1.50;;;;;;;;;;6240051;28;20067;-76
2023/08/25 15:07:07;;;;;;;1.90;1.70;;;;;;;;;;6241732;28;20538;-76
2023/08/25 15:10:10;;;;;;;3.70;1.95;;;;;;;;;;6244278;28;20547;-77
2023/08/25 15:13:12;;;;;;;3.28;2.05;;;;;;;;;;6238003;28;20049;-76
2023/08/25 15:16:14;;;;;;;2.27;1.80;;;;;;;;;;6239960;28;20188;-75
2023/08/25 15:19:16;;;;;;;3.57;1.83;;;;;;;;;;6236011;28;20144;-76
2023/08/25 15:22:23;;;;;;;3.47;1.98;;;;;;;;;;6229763;28;20099;-75
2023/08/25 15:25:24;;;;;;;3.00;1.83;;;;;;;;;;6229223;28;20187;-76
2023/08/25 15:28:27;;;;;;;4.73;2.80;;;;;;;;;;6228650;28;20150;-76
2023/08/25 15:31:29;;;;;;;2.10;1.40;;;;;;;;;;6231016;28;20076;-76
2023/08/25 15:34:31;;;;;;;5.03;2.00;;;;;;;;;;6230452;28;20162;-76
2023/08/25 15:37:33;;;;;;;1.73;1.50;;;;;;;;;;6229544;28;20136;-76
2023/08/25 15:40:34;;;;;;;3.22;1.40;;;;;;;;;;6229644;28;20511;-76
2023/08/25 15:43:36;;;;;;;3.38;1.80;;;;;;;;;;6231240;28;20077;-79
2023/08/25 15:46:38;;;;;;;2.72;1.70;;;;;;;;;;6228246;28;20045;-76
2023/08/25 15:49:40;;;;;;;4.23;2.10;;;;;;;;;;6230101;28;20049;-75
2023/08/25 15:52:42;;;;;;;3.75;2.03;;;;;;;;;;6230793;28;20141;-76
2023/08/25 15:55:44;;;;;;;3.72;2.10;;;;;;;;;;6222258;28;20397;-76
2023/08/25 15:58:45;;;;;;;3.78;1.90;;;;;;;;;;6229130;28;20077;-77
2023/08/25 16:01:47;;;;;;;3.85;1.90;;;;;;;;;;6212517;28;20065;-77
2023/08/25 16:04:51;;;;;;;3.88;1.73;;;;;;;;;;6211740;28;20049;-76
2023/08/25 16:07:53;;;;;;;4.03;2.20;;;;;;;;;;6229287;28;20046;-76
2023/08/25 16:11:07;;;;;;;2.25;1.85;;;;;;;;;;6227996;28;20049;-76
2023/08/25 16:14:09;;;;;;;3.55;2.00;;;;;;;;;;6207365;28;20064;-76
2023/08/25 16:17:11;;;;;;;2.43;2.07;;;;;;;;;;6227079;28;20480;-76
2023/08/25 16:20:13;;;;;;;;;;;;;;;;;;6227876;28;20456;-77
2023/08/25 16:23:15;;;;;;;3.63;2.13;;;;;;;;;;6227361;28;19964;-76
2023/08/25 16:26:17;;;;;;;2.88;2.15;;;;;;;;;;6227107;28;20073;-77
2023/08/25 16:29:19;;;;;;;2.50;2.00;;;;;;;;;;6226766;28;20065;-77
2023/08/25 16:32:21;;;;;;;3.50;2.40;;;;;;;;;;6208584;28;20053;-77
2023/08/25 16:35:23;;;;;;;3.40;2.40;;;;;;;;;;6205068;28;20192;-77
2023/08/25 16:38:25;;;;;;;3.17;2.50;;;;;;;;;;6221743;28;20451;-75
2023/08/25 16:41:26;;;;;;;4.60;2.72;;;;;;;;;;6230508;28;20140;-77
2023/08/25 16:44:28;;;;;;;3.80;2.63;;;;;;;;;;6226223;28;20049;-76
2023/08/25 16:47:30;;;;;;;3.40;2.37;;;;;;;;;;6226141;28;20146;-77
2023/08/25 16:50:33;;;;;;;3.65;2.40;;;;;;;;;;6225470;28;20598;-76
2023/08/25 16:53:35;;;;;;;3.97;2.20;;;;;;;;;;6229858;28;20049;-78
2023/08/25 16:56:37;;;;;;;2.80;2.42;;;;;;;;;;6225653;28;20175;-77
2023/08/25 16:59:38;;;;;;;2.58;2.38;;;;;;;;;;6221262;28;20385;-75
2023/08/25 17:02:45;;;;;;;3.03;2.67;;;;;;;;;;6234637;28;20084;-76
2023/08/25 17:05:47;;;;;;;3.00;2.38;;;;;;;;;;6223242;28;20507;-77
2023/08/25 17:08:50;;;;;;;4.65;2.42;;;;;;;;;;6220834;28;20539;-75
2023/08/25 17:11:52;;;;;;;4.43;2.50;;;;;;;;;;6208098;28;20526;-76
2023/08/25 17:14:54;;;;;;;3.72;2.22;;;;;;;;;;6218447;28;20098;-76
2023/08/25 17:17:56;;;;;;;4.55;2.50;;;;;;;;;;6223300;28;20046;-76
2023/08/25 17:20:58;;;;;;;3.00;2.27;;;;;;;;;;6217581;28;20045;-76
2023/08/25 17:24:00;;;;;;;2.53;1.92;;;;;;;;;;6226362;28;20045;-76
2023/08/25 17:27:03;;;;;;;2.85;1.95;;;;;;;;;;6225443;28;20057;-75
2023/08/25 17:30:06;;;;;;;2.22;2.03;;;;;;;;;;6220818;28;20050;-77
2023/08/25 17:33:12;;;;;;;3.63;2.60;;;;;;;;;;6222238;28;20050;-76
2023/08/25 17:36:14;;;;;;;2.77;2.30;;;;;;;;;;6230456;28;20034;-77
2023/08/25 17:39:15;;;;;;;5.03;2.60;;;;;;;;;;6219749;28;20080;-76
2023/08/25 17:42:18;;;;;;;3.17;2.70;;;;;;;;;;6219916;28;20050;-76
2023/08/25 17:45:20;;;;;;;;;;;;;;;;;;6224482;28;20068;-77
2023/08/25 17:48:21;;;;;;;4.10;3.00;;;;;;;;;;6228308;28;19921;-75
2023/08/25 17:51:23;;;;;;;5.82;2.75;;;;;;;;;;6220791;28;20068;-76
2023/08/25 17:54:24;;;;;;;3.85;2.60;;;;;;;;;;6215671;28;20128;-77
2023/08/25 17:57:26;;;;;;;3.92;2.67;;;;;;;;;;6227283;28;20111;-76
2023/08/25 18:00:28;;;;;;;4.20;2.70;;;;;;;;;;6206636;28;20140;-76
2023/08/25 18:03:30;;;;;;;5.00;2.83;;;;;;;;;;6221560;28;20133;-76
2023/08/25 18:06:32;;;;;;;4.30;2.70;;;;;;;;;;6219694;28;20041;-77
2023/08/25 18:09:34;;;;;;;3.15;2.60;;;;;;;;;;6224900;28;20103;-76